sensor_id;sensor_type;location;lat;lon;timestamp;temperature;humidity
11650;DHT22;5881;48.522;7.682;2024-03-29T00:01:35;6.40;1.00
11650;DHT22;5881;48.522;7.682;2024-03-29T00:04:01;6.40;1.00
11650;DHT22;5881;48.522;7.682;2024-03-29T00:06:26;6.50;1.00
11650;DHT22;5881;48.522;7.682;2024-03-29T00:08:52;6.50;1.00
11650;DHT22;5881;48.522;7.682;2024-03-29T00:11:18;6.50;1.00
11650;DHT22;5881;48.522;7.682;2024-03-29T00:13:43;6.60;1.00
11650;DHT22;5881;48.522;7.682;2024-03-29T00:16:09;6.60;1.00
11650;DHT22;5881;48.522;7.682;2024-03-29T00:18:35;6.60;1.00
11650;DHT22;5881;48.522;7.682;2024-03-29T00:21:00;6.60;1.00
11650;DHT22;5881;48.522;7.682;2024-03-29T00:23:26;6.50;1.00
11650;DHT22;5881;48.522;7.682;2024-03-29T00:25:51;6.50;1.00
11650;DHT22;5881;48.522;7.682;2024-03-29T00:28:17;6.30;1.00
11650;DHT22;5881;48.522;7.682;2024-03-29T00:30:43;6.30;1.00
11650;DHT22;5881;48.522;7.682;2024-03-29T00:33:09;6.10;1.00
11650;DHT22;5881;48.522;7.682;2024-03-29T00:35:34;6.10;1.00
11650;DHT22;5881;48.522;7.682;2024-03-29T00:38:00;6.10;1.00
11650;DHT22;5881;48.522;7.682;2024-03-29T00:40:25;6.10;1.00
11650;DHT22;5881;48.522;7.682;2024-03-29T00:42:51;6.10;1.00
11650;DHT22;5881;48.522;7.682;2024-03-29T00:45:17;6.10;1.00
11650;DHT22;5881;48.522;7.682;2024-03-29T00:47:42;5.80;1.00
11650;DHT22;5881;48.522;7.682;2024-03-29T00:50:08;5.80;1.00
11650;DHT22;5881;48.522;7.682;2024-03-29T00:52:35;5.80;1.00
11650;DHT22;5881;48.522;7.682;2024-03-29T00:55:00;5.80;1.00
11650;DHT22;5881;48.522;7.682;2024-03-29T00:57:26;6.00;1.00
11650;DHT22;5881;48.522;7.682;2024-03-29T00:59:52;5.90;1.00
11650;DHT22;5881;48.522;7.682;2024-03-29T01:02:17;6.00;1.00
11650;DHT22;5881;48.522;7.682;2024-03-29T01:04:43;6.00;1.00
11650;DHT22;5881;48.522;7.682;2024-03-29T01:07:08;6.00;1.00
11650;DHT22;5881;48.522;7.682;2024-03-29T01:09:34;5.90;1.00
11650;DHT22;5881;48.522;7.682;2024-03-29T01:12:00;5.90;1.00
11650;DHT22;5881;48.522;7.682;2024-03-29T01:14:25;5.80;1.00
11650;DHT22;5881;48.522;7.682;2024-03-29T01:16:51;5.80;1.00
11650;DHT22;5881;48.522;7.682;2024-03-29T01:19:17;5.80;1.00
11650;DHT22;5881;48.522;7.682;2024-03-29T01:21:43;5.90;1.00
11650;DHT22;5881;48.522;7.682;2024-03-29T01:24:08;6.10;1.00
11650;DHT22;5881;48.522;7.682;2024-03-29T01:26:34;5.90;1.00
11650;DHT22;5881;48.522;7.682;2024-03-29T01:29:00;5.90;1.00
11650;DHT22;5881;48.522;7.682;2024-03-29T01:31:25;5.90;1.00
11650;DHT22;5881;48.522;7.682;2024-03-29T01:33:51;6.00;1.00
11650;DHT22;5881;48.522;7.682;2024-03-29T01:36:16;5.90;1.00
11650;DHT22;5881;48.522;7.682;2024-03-29T01:38:42;5.80;1.00
11650;DHT22;5881;48.522;7.682;2024-03-29T01:41:11;5.90;1.00
11650;DHT22;5881;48.522;7.682;2024-03-29T01:43:37;5.80;1.00
11650;DHT22;5881;48.522;7.682;2024-03-29T01:46:03;5.80;1.00
11650;DHT22;5881;48.522;7.682;2024-03-29T01:48:31;5.80;1.00
11650;DHT22;5881;48.522;7.682;2024-03-29T01:50:58;5.80;1.00
11650;DHT22;5881;48.522;7.682;2024-03-29T01:53:24;5.90;1.00
11650;DHT22;5881;48.522;7.682;2024-03-29T01:55:51;5.90;1.00
11650;DHT22;5881;48.522;7.682;2024-03-29T01:58:18;5.80;1.00
11650;DHT22;5881;48.522;7.682;2024-03-29T02:00:52;5.80;1.00
11650;DHT22;5881;48.522;7.682;2024-03-29T02:03:18;5.80;1.00
11650;DHT22;5881;48.522;7.682;2024-03-29T02:05:46;6.00;1.00
11650;DHT22;5881;48.522;7.682;2024-03-29T02:08:12;5.90;1.00
11650;DHT22;5881;48.522;7.682;2024-03-29T02:10:38;6.00;1.00
11650;DHT22;5881;48.522;7.682;2024-03-29T02:13:03;6.10;1.00
11650;DHT22;5881;48.522;7.682;2024-03-29T02:15:30;6.20;1.00
11650;DHT22;5881;48.522;7.682;2024-03-29T02:17:56;6.20;1.00
11650;DHT22;5881;48.522;7.682;2024-03-29T02:20:22;6.30;1.00
11650;DHT22;5881;48.522;7.682;2024-03-29T02:22:54;6.40;1.00
11650;DHT22;5881;48.522;7.682;2024-03-29T02:25:21;6.60;1.00
11650;DHT22;5881;48.522;7.682;2024-03-29T02:27:47;6.70;1.00
11650;DHT22;5881;48.522;7.682;2024-03-29T02:30:17;6.70;1.00
11650;DHT22;5881;48.522;7.682;2024-03-29T02:32:42;6.90;1.00
11650;DHT22;5881;48.522;7.682;2024-03-29T02:35:08;6.90;1.00
11650;DHT22;5881;48.522;7.682;2024-03-29T02:37:37;7.00;1.00
11650;DHT22;5881;48.522;7.682;2024-03-29T02:40:03;7.20;1.00
11650;DHT22;5881;48.522;7.682;2024-03-29T02:42:30;7.10;1.00
11650;DHT22;5881;48.522;7.682;2024-03-29T02:44:56;7.30;1.00
11650;DHT22;5881;48.522;7.682;2024-03-29T02:47:22;7.40;1.00
11650;DHT22;5881;48.522;7.682;2024-03-29T02:49:47;7.80;1.00
11650;DHT22;5881;48.522;7.682;2024-03-29T02:52:13;7.70;1.00
11650;DHT22;5881;48.522;7.682;2024-03-29T02:54:40;7.70;1.00
11650;DHT22;5881;48.522;7.682;2024-03-29T02:57:06;7.70;1.00
11650;DHT22;5881;48.522;7.682;2024-03-29T02:59:32;7.80;1.00
11650;DHT22;5881;48.522;7.682;2024-03-29T03:01:57;7.80;1.00
11650;DHT22;5881;48.522;7.682;2024-03-29T03:04:23;7.70;1.00
11650;DHT22;5881;48.522;7.682;2024-03-29T03:06:48;7.80;1.00
11650;DHT22;5881;48.522;7.682;2024-03-29T03:09:14;7.80;1.00
11650;DHT22;5881;48.522;7.682;2024-03-29T03:11:58;7.90;1.00
11650;DHT22;5881;48.522;7.682;2024-03-29T03:14:24;7.80;1.00
11650;DHT22;5881;48.522;7.682;2024-03-29T03:16:50;7.90;1.00
11650;DHT22;5881;48.522;7.682;2024-03-29T03:19:16;8.00;1.00
11650;DHT22;5881;48.522;7.682;2024-03-29T03:21:41;7.90;1.00
11650;DHT22;5881;48.522;7.682;2024-03-29T03:24:07;7.90;1.00
11650;DHT22;5881;48.522;7.682;2024-03-29T03:26:32;7.90;1.00
11650;DHT22;5881;48.522;7.682;2024-03-29T03:28:58;7.90;1.00
11650;DHT22;5881;48.522;7.682;2024-03-29T03:31:23;7.90;1.00
11650;DHT22;5881;48.522;7.682;2024-03-29T03:33:49;7.90;1.00
11650;DHT22;5881;48.522;7.682;2024-03-29T03:36:14;7.90;1.00
11650;DHT22;5881;48.522;7.682;2024-03-29T03:38:40;7.90;1.00
11650;DHT22;5881;48.522;7.682;2024-03-29T03:41:06;7.90;1.00
11650;DHT22;5881;48.522;7.682;2024-03-29T03:43:32;7.90;1.00
11650;DHT22;5881;48.522;7.682;2024-03-29T03:46:01;7.90;1.00
11650;DHT22;5881;48.522;7.682;2024-03-29T03:48:27;7.90;1.00
11650;DHT22;5881;48.522;7.682;2024-03-29T03:50:57;7.90;1.00
11650;DHT22;5881;48.522;7.682;2024-03-29T03:53:23;7.90;1.00
11650;DHT22;5881;48.522;7.682;2024-03-29T03:55:49;7.90;1.00
11650;DHT22;5881;48.522;7.682;2024-03-29T03:58:15;7.80;1.00
11650;DHT22;5881;48.522;7.682;2024-03-29T04:00:40;7.80;1.00
11650;DHT22;5881;48.522;7.682;2024-03-29T04:03:06;7.80;1.00
11650;DHT22;5881;48.522;7.682;2024-03-29T04:05:32;7.80;1.00
11650;DHT22;5881;48.522;7.682;2024-03-29T04:07:58;8.00;1.00
11650;DHT22;5881;48.522;7.682;2024-03-29T04:10:24;7.90;1.00
11650;DHT22;5881;48.522;7.682;2024-03-29T04:12:52;7.90;1.00
11650;DHT22;5881;48.522;7.682;2024-03-29T04:15:18;7.90;1.00
11650;DHT22;5881;48.522;7.682;2024-03-29T04:17:43;8.00;1.00
11650;DHT22;5881;48.522;7.682;2024-03-29T04:20:09;8.10;1.00
11650;DHT22;5881;48.522;7.682;2024-03-29T04:22:35;8.10;1.00
11650;DHT22;5881;48.522;7.682;2024-03-29T04:25:01;8.30;1.00
11650;DHT22;5881;48.522;7.682;2024-03-29T04:27:26;8.10;1.00
11650;DHT22;5881;48.522;7.682;2024-03-29T04:29:53;8.20;1.00
11650;DHT22;5881;48.522;7.682;2024-03-29T04:32:18;8.00;1.00
11650;DHT22;5881;48.522;7.682;2024-03-29T04:34:47;8.10;1.00
11650;DHT22;5881;48.522;7.682;2024-03-29T04:37:13;8.10;1.00
11650;DHT22;5881;48.522;7.682;2024-03-29T04:39:38;8.20;1.00
11650;DHT22;5881;48.522;7.682;2024-03-29T04:42:04;8.40;1.00
11650;DHT22;5881;48.522;7.682;2024-03-29T04:44:30;8.60;1.00
11650;DHT22;5881;48.522;7.682;2024-03-29T04:46:55;8.70;1.00
11650;DHT22;5881;48.522;7.682;2024-03-29T04:49:24;8.70;1.00
11650;DHT22;5881;48.522;7.682;2024-03-29T04:51:57;8.70;1.00
11650;DHT22;5881;48.522;7.682;2024-03-29T04:54:23;8.60;1.00
11650;DHT22;5881;48.522;7.682;2024-03-29T04:56:48;8.70;1.00
11650;DHT22;5881;48.522;7.682;2024-03-29T04:59:14;8.80;1.00
11650;DHT22;5881;48.522;7.682;2024-03-29T05:01:43;8.60;1.00
11650;DHT22;5881;48.522;7.682;2024-03-29T05:04:09;8.70;1.00
11650;DHT22;5881;48.522;7.682;2024-03-29T05:06:35;8.80;1.00
11650;DHT22;5881;48.522;7.682;2024-03-29T05:09:01;8.70;1.00
11650;DHT22;5881;48.522;7.682;2024-03-29T05:11:26;8.90;1.00
11650;DHT22;5881;48.522;7.682;2024-03-29T05:13:52;8.80;1.00
11650;DHT22;5881;48.522;7.682;2024-03-29T05:16:18;8.80;1.00
11650;DHT22;5881;48.522;7.682;2024-03-29T05:18:43;8.90;1.00
11650;DHT22;5881;48.522;7.682;2024-03-29T05:21:09;8.90;1.00
11650;DHT22;5881;48.522;7.682;2024-03-29T05:23:34;8.90;1.00
11650;DHT22;5881;48.522;7.682;2024-03-29T05:26:00;8.70;1.00
11650;DHT22;5881;48.522;7.682;2024-03-29T05:28:26;8.70;1.00
11650;DHT22;5881;48.522;7.682;2024-03-29T05:30:52;8.40;1.00
11650;DHT22;5881;48.522;7.682;2024-03-29T05:33:17;8.30;1.00
11650;DHT22;5881;48.522;7.682;2024-03-29T05:35:43;8.30;1.00
11650;DHT22;5881;48.522;7.682;2024-03-29T05:38:09;8.40;1.00
11650;DHT22;5881;48.522;7.682;2024-03-29T05:40:35;8.20;1.00
11650;DHT22;5881;48.522;7.682;2024-03-29T05:43:00;8.30;1.00
11650;DHT22;5881;48.522;7.682;2024-03-29T05:45:30;8.30;1.00
11650;DHT22;5881;48.522;7.682;2024-03-29T05:47:57;8.30;1.00
11650;DHT22;5881;48.522;7.682;2024-03-29T05:50:24;8.30;1.00
11650;DHT22;5881;48.522;7.682;2024-03-29T05:52:51;8.40;1.00
11650;DHT22;5881;48.522;7.682;2024-03-29T05:55:17;8.30;1.00
11650;DHT22;5881;48.522;7.682;2024-03-29T05:57:43;8.50;1.00
11650;DHT22;5881;48.522;7.682;2024-03-29T06:00:11;8.80;1.00
11650;DHT22;5881;48.522;7.682;2024-03-29T06:02:37;8.90;1.00
11650;DHT22;5881;48.522;7.682;2024-03-29T06:05:03;9.00;1.00
11650;DHT22;5881;48.522;7.682;2024-03-29T06:07:31;9.00;1.00
11650;DHT22;5881;48.522;7.682;2024-03-29T06:10:01;9.10;1.00
11650;DHT22;5881;48.522;7.682;2024-03-29T06:12:33;9.10;1.00
11650;DHT22;5881;48.522;7.682;2024-03-29T06:14:58;9.20;1.00
11650;DHT22;5881;48.522;7.682;2024-03-29T06:17:42;9.20;1.00
11650;DHT22;5881;48.522;7.682;2024-03-29T06:20:08;9.30;1.00
11650;DHT22;5881;48.522;7.682;2024-03-29T06:22:34;9.20;1.00
11650;DHT22;5881;48.522;7.682;2024-03-29T06:25:00;9.20;1.00
11650;DHT22;5881;48.522;7.682;2024-03-29T06:27:31;9.20;1.00
11650;DHT22;5881;48.522;7.682;2024-03-29T06:29:57;9.30;1.00
11650;DHT22;5881;48.522;7.682;2024-03-29T06:32:22;9.10;1.00
11650;DHT22;5881;48.522;7.682;2024-03-29T06:34:48;9.10;1.00
11650;DHT22;5881;48.522;7.682;2024-03-29T06:37:14;9.20;1.00
11650;DHT22;5881;48.522;7.682;2024-03-29T06:39:39;9.10;1.00
11650;DHT22;5881;48.522;7.682;2024-03-29T06:42:06;9.10;1.00
11650;DHT22;5881;48.522;7.682;2024-03-29T06:44:33;9.10;1.00
11650;DHT22;5881;48.522;7.682;2024-03-29T06:46:58;9.00;1.00
11650;DHT22;5881;48.522;7.682;2024-03-29T06:49:24;8.90;1.00
11650;DHT22;5881;48.522;7.682;2024-03-29T06:51:50;8.80;1.00
11650;DHT22;5881;48.522;7.682;2024-03-29T06:54:15;8.60;1.00
11650;DHT22;5881;48.522;7.682;2024-03-29T06:56:41;8.50;1.00
11650;DHT22;5881;48.522;7.682;2024-03-29T06:59:07;8.30;1.00
11650;DHT22;5881;48.522;7.682;2024-03-29T07:01:33;8.20;1.00
11650;DHT22;5881;48.522;7.682;2024-03-29T07:03:59;8.20;1.00
11650;DHT22;5881;48.522;7.682;2024-03-29T07:06:24;8.10;1.00
11650;DHT22;5881;48.522;7.682;2024-03-29T07:08:50;8.10;4.30
11650;DHT22;5881;48.522;7.682;2024-03-29T07:11:16;8.00;1.00
11650;DHT22;5881;48.522;7.682;2024-03-29T07:13:41;8.10;1.00
11650;DHT22;5881;48.522;7.682;2024-03-29T07:16:07;8.10;4.10
11650;DHT22;5881;48.522;7.682;2024-03-29T07:18:33;8.00;17.50
11650;DHT22;5881;48.522;7.682;2024-03-29T07:20:58;7.90;37.20
11650;DHT22;5881;48.522;7.682;2024-03-29T07:23:24;7.90;28.30
11650;DHT22;5881;48.522;7.682;2024-03-29T07:26:00;7.90;46.80
11650;DHT22;5881;48.522;7.682;2024-03-29T07:28:27;7.90;44.80
11650;DHT22;5881;48.522;7.682;2024-03-29T07:30:53;7.90;34.40
11650;DHT22;5881;48.522;7.682;2024-03-29T07:33:19;7.80;43.40
11650;DHT22;5881;48.522;7.682;2024-03-29T07:35:47;7.70;64.30
11650;DHT22;5881;48.522;7.682;2024-03-29T07:38:13;7.70;98.00
11650;DHT22;5881;48.522;7.682;2024-03-29T07:40:42;7.60;99.90
11650;DHT22;5881;48.522;7.682;2024-03-29T07:43:08;7.70;99.90
11650;DHT22;5881;48.522;7.682;2024-03-29T07:45:34;7.60;99.90
11650;DHT22;5881;48.522;7.682;2024-03-29T07:47:59;7.50;99.90
11650;DHT22;5881;48.522;7.682;2024-03-29T07:50:25;7.50;99.90
11650;DHT22;5881;48.522;7.682;2024-03-29T07:52:51;7.50;99.90
11650;DHT22;5881;48.522;7.682;2024-03-29T07:55:16;7.50;1.00
11650;DHT22;5881;48.522;7.682;2024-03-29T07:57:42;7.50;1.00
11650;DHT22;5881;48.522;7.682;2024-03-29T08:00:08;7.50;1.00
11650;DHT22;5881;48.522;7.682;2024-03-29T08:02:35;7.60;1.00
11650;DHT22;5881;48.522;7.682;2024-03-29T08:05:01;7.70;99.90
11650;DHT22;5881;48.522;7.682;2024-03-29T08:07:27;7.60;1.00
11650;DHT22;5881;48.522;7.682;2024-03-29T08:09:52;7.60;22.50
11650;DHT22;5881;48.522;7.682;2024-03-29T08:12:18;7.70;72.10
11650;DHT22;5881;48.522;7.682;2024-03-29T08:14:43;7.60;99.90
11650;DHT22;5881;48.522;7.682;2024-03-29T08:17:09;7.60;1.00
11650;DHT22;5881;48.522;7.682;2024-03-29T08:19:41;7.70;10.80
11650;DHT22;5881;48.522;7.682;2024-03-29T08:22:08;7.80;99.90
11650;DHT22;5881;48.522;7.682;2024-03-29T08:24:39;7.90;1.00
11650;DHT22;5881;48.522;7.682;2024-03-29T08:27:04;7.90;1.00
11650;DHT22;5881;48.522;7.682;2024-03-29T08:29:30;8.00;74.90
11650;DHT22;5881;48.522;7.682;2024-03-29T08:31:55;8.00;99.90
11650;DHT22;5881;48.522;7.682;2024-03-29T08:34:23;8.10;99.90
11650;DHT22;5881;48.522;7.682;2024-03-29T08:36:48;8.20;1.00
11650;DHT22;5881;48.522;7.682;2024-03-29T08:39:14;8.10;1.00
11650;DHT22;5881;48.522;7.682;2024-03-29T08:41:40;8.20;1.00
11650;DHT22;5881;48.522;7.682;2024-03-29T08:44:07;8.30;1.00
11650;DHT22;5881;48.522;7.682;2024-03-29T08:46:32;8.30;99.90
11650;DHT22;5881;48.522;7.682;2024-03-29T08:48:58;8.40;1.00
11650;DHT22;5881;48.522;7.682;2024-03-29T08:51:24;8.40;1.00
11650;DHT22;5881;48.522;7.682;2024-03-29T08:53:49;8.50;99.90
11650;DHT22;5881;48.522;7.682;2024-03-29T08:56:15;8.50;99.90
11650;DHT22;5881;48.522;7.682;2024-03-29T08:58:41;8.40;99.90
11650;DHT22;5881;48.522;7.682;2024-03-29T09:01:06;8.50;1.00
11650;DHT22;5881;48.522;7.682;2024-03-29T09:03:32;8.80;1.00
11650;DHT22;5881;48.522;7.682;2024-03-29T09:05:58;8.50;1.00
11650;DHT22;5881;48.522;7.682;2024-03-29T09:08:23;8.70;1.00
11650;DHT22;5881;48.522;7.682;2024-03-29T09:10:49;8.70;1.00
11650;DHT22;5881;48.522;7.682;2024-03-29T09:13:15;8.80;1.00
11650;DHT22;5881;48.522;7.682;2024-03-29T09:15:40;8.70;1.00
11650;DHT22;5881;48.522;7.682;2024-03-29T09:18:06;8.70;1.00
11650;DHT22;5881;48.522;7.682;2024-03-29T09:20:38;8.70;1.00
11650;DHT22;5881;48.522;7.682;2024-03-29T09:23:04;8.80;1.00
11650;DHT22;5881;48.522;7.682;2024-03-29T09:25:30;8.70;1.00
11650;DHT22;5881;48.522;7.682;2024-03-29T09:27:57;8.60;2.90
11650;DHT22;5881;48.522;7.682;2024-03-29T09:30:23;8.70;20.20
11650;DHT22;5881;48.522;7.682;2024-03-29T09:32:48;8.60;80.40
11650;DHT22;5881;48.522;7.682;2024-03-29T09:35:17;8.60;99.90
11650;DHT22;5881;48.522;7.682;2024-03-29T09:37:42;8.50;99.90
11650;DHT22;5881;48.522;7.682;2024-03-29T09:40:10;8.50;99.90
11650;DHT22;5881;48.522;7.682;2024-03-29T09:42:38;8.60;99.90
11650;DHT22;5881;48.522;7.682;2024-03-29T09:45:05;8.50;99.90
11650;DHT22;5881;48.522;7.682;2024-03-29T09:47:32;8.60;99.90
11650;DHT22;5881;48.522;7.682;2024-03-29T09:50:00;8.60;99.90
11650;DHT22;5881;48.522;7.682;2024-03-29T09:52:28;8.70;99.90
11650;DHT22;5881;48.522;7.682;2024-03-29T09:54:55;8.70;99.90
11650;DHT22;5881;48.522;7.682;2024-03-29T09:57:22;8.80;99.90
11650;DHT22;5881;48.522;7.682;2024-03-29T09:59:49;8.90;99.90
11650;DHT22;5881;48.522;7.682;2024-03-29T10:02:16;9.10;99.90
11650;DHT22;5881;48.522;7.682;2024-03-29T10:04:42;8.90;99.90
11650;DHT22;5881;48.522;7.682;2024-03-29T10:07:08;9.00;99.90
11650;DHT22;5881;48.522;7.682;2024-03-29T10:09:36;9.00;99.90
11650;DHT22;5881;48.522;7.682;2024-03-29T10:12:01;8.90;99.90
11650;DHT22;5881;48.522;7.682;2024-03-29T10:14:30;9.00;99.90
11650;DHT22;5881;48.522;7.682;2024-03-29T10:16:58;9.00;99.90
11650;DHT22;5881;48.522;7.682;2024-03-29T10:19:23;9.10;69.60
11650;DHT22;5881;48.522;7.682;2024-03-29T10:21:49;9.40;99.90
11650;DHT22;5881;48.522;7.682;2024-03-29T10:24:15;9.80;99.90
11650;DHT22;5881;48.522;7.682;2024-03-29T10:26:43;9.90;1.00
11650;DHT22;5881;48.522;7.682;2024-03-29T10:29:09;9.90;99.90
11650;DHT22;5881;48.522;7.682;2024-03-29T10:31:35;9.80;99.90
11650;DHT22;5881;48.522;7.682;2024-03-29T10:34:05;9.70;1.00
11650;DHT22;5881;48.522;7.682;2024-03-29T10:36:31;9.80;99.90
11650;DHT22;5881;48.522;7.682;2024-03-29T10:39:11;9.80;1.00
11650;DHT22;5881;48.522;7.682;2024-03-29T10:41:40;9.70;1.00
11650;DHT22;5881;48.522;7.682;2024-03-29T10:44:09;9.80;1.00
11650;DHT22;5881;48.522;7.682;2024-03-29T10:46:37;10.00;1.00
11650;DHT22;5881;48.522;7.682;2024-03-29T10:49:07;10.10;1.00
11650;DHT22;5881;48.522;7.682;2024-03-29T10:51:39;10.10;1.00
11650;DHT22;5881;48.522;7.682;2024-03-29T10:54:06;10.20;99.90
11650;DHT22;5881;48.522;7.682;2024-03-29T10:56:35;10.20;1.00
11650;DHT22;5881;48.522;7.682;2024-03-29T10:59:22;10.20;1.00
11650;DHT22;5881;48.522;7.682;2024-03-29T11:01:52;10.20;1.00
11650;DHT22;5881;48.522;7.682;2024-03-29T11:04:22;10.20;1.00
11650;DHT22;5881;48.522;7.682;2024-03-29T11:06:53;10.20;99.90
11650;DHT22;5881;48.522;7.682;2024-03-29T11:09:20;10.10;1.00
11650;DHT22;5881;48.522;7.682;2024-03-29T11:11:50;10.40;1.00
11650;DHT22;5881;48.522;7.682;2024-03-29T11:14:23;10.60;1.00
11650;DHT22;5881;48.522;7.682;2024-03-29T11:16:49;10.40;99.90
11650;DHT22;5881;48.522;7.682;2024-03-29T11:19:18;10.60;1.00
11650;DHT22;5881;48.522;7.682;2024-03-29T11:21:44;10.30;1.00
11650;DHT22;5881;48.522;7.682;2024-03-29T11:24:15;10.30;1.00
11650;DHT22;5881;48.522;7.682;2024-03-29T11:26:41;10.40;1.00
11650;DHT22;5881;48.522;7.682;2024-03-29T11:29:20;10.40;1.00
11650;DHT22;5881;48.522;7.682;2024-03-29T11:31:46;10.60;99.90
11650;DHT22;5881;48.522;7.682;2024-03-29T11:34:18;10.70;1.00
11650;DHT22;5881;48.522;7.682;2024-03-29T11:36:45;10.70;1.00
11650;DHT22;5881;48.522;7.682;2024-03-29T11:39:23;11.00;99.90
11650;DHT22;5881;48.522;7.682;2024-03-29T11:41:49;11.10;99.90
11650;DHT22;5881;48.522;7.682;2024-03-29T11:44:16;11.20;1.00
11650;DHT22;5881;48.522;7.682;2024-03-29T11:46:43;11.10;1.00
11650;DHT22;5881;48.522;7.682;2024-03-29T11:49:09;11.30;99.90
11650;DHT22;5881;48.522;7.682;2024-03-29T11:51:35;11.20;1.00
11650;DHT22;5881;48.522;7.682;2024-03-29T11:54:01;11.30;1.00
11650;DHT22;5881;48.522;7.682;2024-03-29T11:56:27;11.30;1.00
11650;DHT22;5881;48.522;7.682;2024-03-29T11:58:52;11.40;99.90
11650;DHT22;5881;48.522;7.682;2024-03-29T12:01:19;11.40;1.00
11650;DHT22;5881;48.522;7.682;2024-03-29T12:03:44;11.40;1.00
11650;DHT22;5881;48.522;7.682;2024-03-29T12:06:11;11.50;1.00
11650;DHT22;5881;48.522;7.682;2024-03-29T12:08:39;11.50;1.00
11650;DHT22;5881;48.522;7.682;2024-03-29T12:11:05;11.60;1.00
11650;DHT22;5881;48.522;7.682;2024-03-29T12:13:31;11.60;99.90
11650;DHT22;5881;48.522;7.682;2024-03-29T12:15:57;11.70;99.90
11650;DHT22;5881;48.522;7.682;2024-03-29T12:18:25;11.70;1.00
11650;DHT22;5881;48.522;7.682;2024-03-29T12:20:51;11.80;1.00
11650;DHT22;5881;48.522;7.682;2024-03-29T12:23:19;11.80;1.00
11650;DHT22;5881;48.522;7.682;2024-03-29T12:25:45;11.90;99.90
11650;DHT22;5881;48.522;7.682;2024-03-29T12:28:13;11.70;99.90
11650;DHT22;5881;48.522;7.682;2024-03-29T12:30:47;11.80;1.00
11650;DHT22;5881;48.522;7.682;2024-03-29T12:33:15;11.90;99.90
11650;DHT22;5881;48.522;7.682;2024-03-29T12:35:42;12.00;99.90
11650;DHT22;5881;48.522;7.682;2024-03-29T12:38:14;12.00;99.90
11650;DHT22;5881;48.522;7.682;2024-03-29T12:40:45;12.20;1.00
11650;DHT22;5881;48.522;7.682;2024-03-29T12:43:13;12.30;99.90
11650;DHT22;5881;48.522;7.682;2024-03-29T12:45:41;12.50;1.00
11650;DHT22;5881;48.522;7.682;2024-03-29T12:48:11;12.30;1.00
11650;DHT22;5881;48.522;7.682;2024-03-29T12:50:40;12.30;1.00
11650;DHT22;5881;48.522;7.682;2024-03-29T12:53:07;12.40;99.90
11650;DHT22;5881;48.522;7.682;2024-03-29T12:55:33;12.30;1.00
11650;DHT22;5881;48.522;7.682;2024-03-29T12:58:01;12.50;29.20
11650;DHT22;5881;48.522;7.682;2024-03-29T13:00:32;12.80;1.00
11650;DHT22;5881;48.522;7.682;2024-03-29T13:02:58;12.80;1.00
11650;DHT22;5881;48.522;7.682;2024-03-29T13:05:24;13.20;29.70
11650;DHT22;5881;48.522;7.682;2024-03-29T13:07:49;13.10;1.00
11650;DHT22;5881;48.522;7.682;2024-03-29T13:10:15;13.40;99.90
11650;DHT22;5881;48.522;7.682;2024-03-29T13:12:46;13.50;99.90
11650;DHT22;5881;48.522;7.682;2024-03-29T13:15:26;13.80;1.00
11650;DHT22;5881;48.522;7.682;2024-03-29T13:17:56;14.00;99.90
11650;DHT22;5881;48.522;7.682;2024-03-29T13:20:22;14.00;99.90
11650;DHT22;5881;48.522;7.682;2024-03-29T13:22:49;13.80;99.90
11650;DHT22;5881;48.522;7.682;2024-03-29T13:25:16;13.20;1.00
11650;DHT22;5881;48.522;7.682;2024-03-29T13:27:42;13.30;1.00
11650;DHT22;5881;48.522;7.682;2024-03-29T13:30:10;13.10;1.00
11650;DHT22;5881;48.522;7.682;2024-03-29T13:32:38;13.00;1.00
11650;DHT22;5881;48.522;7.682;2024-03-29T13:35:05;13.00;1.00
11650;DHT22;5881;48.522;7.682;2024-03-29T13:37:34;12.90;1.00
11650;DHT22;5881;48.522;7.682;2024-03-29T13:40:00;12.50;99.90
11650;DHT22;5881;48.522;7.682;2024-03-29T13:42:26;12.30;1.00
11650;DHT22;5881;48.522;7.682;2024-03-29T13:44:52;12.50;1.00
11650;DHT22;5881;48.522;7.682;2024-03-29T13:47:18;12.70;1.00
11650;DHT22;5881;48.522;7.682;2024-03-29T13:49:45;12.80;99.90
11650;DHT22;5881;48.522;7.682;2024-03-29T13:52:12;13.10;42.60
11650;DHT22;5881;48.522;7.682;2024-03-29T13:54:37;13.10;99.90
11650;DHT22;5881;48.522;7.682;2024-03-29T13:57:03;13.20;99.90
11650;DHT22;5881;48.522;7.682;2024-03-29T13:59:29;13.40;1.00
11650;DHT22;5881;48.522;7.682;2024-03-29T14:01:55;13.40;1.00
11650;DHT22;5881;48.522;7.682;2024-03-29T14:04:22;13.50;1.00
11650;DHT22;5881;48.522;7.682;2024-03-29T14:06:48;13.60;1.00
11650;DHT22;5881;48.522;7.682;2024-03-29T14:09:13;14.00;1.00
11650;DHT22;5881;48.522;7.682;2024-03-29T14:11:39;14.10;99.90
11650;DHT22;5881;48.522;7.682;2024-03-29T14:14:05;14.20;99.90
11650;DHT22;5881;48.522;7.682;2024-03-29T14:16:33;14.10;99.90
11650;DHT22;5881;48.522;7.682;2024-03-29T14:18:58;14.50;99.90
11650;DHT22;5881;48.522;7.682;2024-03-29T14:21:24;14.60;99.90
11650;DHT22;5881;48.522;7.682;2024-03-29T14:23:50;14.20;99.90
11650;DHT22;5881;48.522;7.682;2024-03-29T14:26:15;14.40;99.90
11650;DHT22;5881;48.522;7.682;2024-03-29T14:28:41;14.30;99.90
11650;DHT22;5881;48.522;7.682;2024-03-29T14:31:06;14.20;99.90
11650;DHT22;5881;48.522;7.682;2024-03-29T14:33:33;14.20;99.90
11650;DHT22;5881;48.522;7.682;2024-03-29T14:35:59;14.40;99.90
11650;DHT22;5881;48.522;7.682;2024-03-29T14:38:24;14.40;99.90
11650;DHT22;5881;48.522;7.682;2024-03-29T14:40:50;14.50;99.90
11650;DHT22;5881;48.522;7.682;2024-03-29T14:43:15;14.50;99.90
11650;DHT22;5881;48.522;7.682;2024-03-29T14:45:42;14.30;99.90
11650;DHT22;5881;48.522;7.682;2024-03-29T14:48:08;14.50;99.90
11650;DHT22;5881;48.522;7.682;2024-03-29T14:50:33;14.50;99.90
11650;DHT22;5881;48.522;7.682;2024-03-29T14:52:59;14.40;99.90
11650;DHT22;5881;48.522;7.682;2024-03-29T14:55:25;14.30;99.90
11650;DHT22;5881;48.522;7.682;2024-03-29T14:57:51;14.30;99.90
11650;DHT22;5881;48.522;7.682;2024-03-29T15:00:18;14.30;99.90
11650;DHT22;5881;48.522;7.682;2024-03-29T15:02:44;14.20;99.90
11650;DHT22;5881;48.522;7.682;2024-03-29T15:05:11;14.30;99.90
11650;DHT22;5881;48.522;7.682;2024-03-29T15:07:37;14.30;99.90
11650;DHT22;5881;48.522;7.682;2024-03-29T15:10:03;14.00;99.90
11650;DHT22;5881;48.522;7.682;2024-03-29T15:12:38;14.00;99.90
11650;DHT22;5881;48.522;7.682;2024-03-29T15:15:05;13.90;99.90
11650;DHT22;5881;48.522;7.682;2024-03-29T15:17:31;13.90;99.90
11650;DHT22;5881;48.522;7.682;2024-03-29T15:19:56;13.90;99.90
11650;DHT22;5881;48.522;7.682;2024-03-29T15:22:22;14.10;99.90
11650;DHT22;5881;48.522;7.682;2024-03-29T15:24:49;14.00;99.90
11650;DHT22;5881;48.522;7.682;2024-03-29T15:27:14;13.90;99.90
11650;DHT22;5881;48.522;7.682;2024-03-29T15:29:58;13.80;99.90
11650;DHT22;5881;48.522;7.682;2024-03-29T15:32:24;13.80;99.90
11650;DHT22;5881;48.522;7.682;2024-03-29T15:34:52;13.80;99.90
11650;DHT22;5881;48.522;7.682;2024-03-29T15:37:17;13.90;99.90
11650;DHT22;5881;48.522;7.682;2024-03-29T15:39:43;13.80;99.90
11650;DHT22;5881;48.522;7.682;2024-03-29T15:42:08;13.80;99.90
11650;DHT22;5881;48.522;7.682;2024-03-29T15:44:35;13.90;99.90
11650;DHT22;5881;48.522;7.682;2024-03-29T15:47:00;13.90;99.90
11650;DHT22;5881;48.522;7.682;2024-03-29T15:49:26;13.90;99.90
11650;DHT22;5881;48.522;7.682;2024-03-29T15:51:51;13.80;99.90
11650;DHT22;5881;48.522;7.682;2024-03-29T15:54:17;13.80;99.90
11650;DHT22;5881;48.522;7.682;2024-03-29T15:56:45;13.80;99.90
11650;DHT22;5881;48.522;7.682;2024-03-29T15:59:10;13.80;99.90
11650;DHT22;5881;48.522;7.682;2024-03-29T16:01:36;13.70;99.90
11650;DHT22;5881;48.522;7.682;2024-03-29T16:04:02;13.70;99.90